createdAt,value
2019-03-06T00:00:55.026Z,2.07
2019-03-06T00:06:16.416Z,1.95
2019-03-06T00:08:36.995Z,1.97
2019-03-06T00:11:03.809Z,2.19
2019-03-06T00:13:30.786Z,2.24
2019-03-06T00:15:57.485Z,2.13
2019-03-06T00:18:24.175Z,2.03
2019-03-06T00:20:51.027Z,2.07
2019-03-06T00:23:17.825Z,1.93
2019-03-06T00:25:44.639Z,1.83
2019-03-06T00:28:11.623Z,1.77
2019-03-06T00:30:38.448Z,1.82
2019-03-06T00:33:05.212Z,1.84
2019-03-06T00:35:35.937Z,2.02
2019-03-06T00:38:02.776Z,2.38
2019-03-06T00:40:53.226Z,2.74
2019-03-06T00:43:20.006Z,2.37
2019-03-06T00:45:46.825Z,2.04
2019-03-06T00:48:13.531Z,1.92
2019-03-06T00:50:40.334Z,1.80
2019-03-06T00:53:07.013Z,1.89
2019-03-06T00:55:33.807Z,1.93
2019-03-06T00:58:00.597Z,1.83
2019-03-06T01:00:27.393Z,1.82
2019-03-06T01:02:54.492Z,1.67
2019-03-06T01:05:23.516Z,1.29
2019-03-06T01:07:50.249Z,1.71
2019-03-06T01:10:17.147Z,1.71
2019-03-06T01:12:44.123Z,1.60
2019-03-06T01:15:11.456Z,1.37
2019-03-06T01:17:38.042Z,1.52
2019-03-06T01:20:05.078Z,1.70
2019-03-06T01:22:31.778Z,1.59
2019-03-06T01:24:58.598Z,1.75
2019-03-06T01:27:25.374Z,1.32
2019-03-06T01:29:52.607Z,1.60
2019-03-06T01:32:19.632Z,1.48
2019-03-06T01:35:05.880Z,1.29
2019-03-06T01:37:50.848Z,1.12
2019-03-06T01:40:23.433Z,1.08
2019-03-06T01:42:57.724Z,1.21
2019-03-06T01:45:24.519Z,1.14
2019-03-06T01:47:51.337Z,1.17
2019-03-06T01:50:18.131Z,1.38
2019-03-06T01:52:45.038Z,1.38
2019-03-06T01:55:13.381Z,1.14
2019-03-06T01:57:40.056Z,1.08
2019-03-06T02:00:08.798Z,0.98
2019-03-06T02:02:35.578Z,1.07
2019-03-06T02:05:23.770Z,1.02
2019-03-06T02:07:50.561Z,1.09
2019-03-06T02:10:18.027Z,0.99
2019-03-06T02:12:44.866Z,1.84
2019-03-06T02:15:13.668Z,1.97
2019-03-06T02:17:41.275Z,1.78
2019-03-06T02:20:09.937Z,1.74
2019-03-06T02:22:36.637Z,1.98
2019-03-06T02:25:03.690Z,1.69
2019-03-06T02:27:30.387Z,1.52
2019-03-06T02:29:57.357Z,1.83
2019-03-06T02:32:24.052Z,2.16
2019-03-06T02:34:50.830Z,2.24
2019-03-06T02:37:17.527Z,2.24
2019-03-06T02:39:44.106Z,2.03
2019-03-06T02:42:10.801Z,1.99
2019-03-06T02:44:39.987Z,1.88
2019-03-06T02:47:06.082Z,1.79
2019-03-06T02:49:32.766Z,1.64
2019-03-06T02:51:59.377Z,1.58
2019-03-06T02:54:26.055Z,1.65
2019-03-06T02:56:52.757Z,1.88
2019-03-06T02:59:34.165Z,1.78
2019-03-06T03:02:20.513Z,1.71
2019-03-06T03:05:05.539Z,1.62
2019-03-06T03:07:32.346Z,1.55
2019-03-06T03:09:59.151Z,1.51
2019-03-06T03:12:25.941Z,1.69
2019-03-06T03:14:52.624Z,2.21
2019-03-06T03:17:19.430Z,2.03
2019-03-06T03:19:46.527Z,2.19
2019-03-06T03:22:13.322Z,2.13
2019-03-06T03:24:40.427Z,2.05
2019-03-06T03:27:07.247Z,1.99
2019-03-06T03:29:33.931Z,2.15
2019-03-06T03:32:00.562Z,2.60
2019-03-06T03:34:27.510Z,2.50
2019-03-06T03:36:54.204Z,2.65
2019-03-06T03:39:21.001Z,2.57
2019-03-06T03:41:47.812Z,2.50
2019-03-06T03:44:14.598Z,2.91
2019-03-06T03:46:41.413Z,3.52
2019-03-06T03:49:28.021Z,3.38
2019-03-06T03:51:54.865Z,3.69
2019-03-06T03:54:21.536Z,3.57
2019-03-06T03:56:48.378Z,3.77
2019-03-06T03:59:15.219Z,3.85
2019-03-06T04:01:42.323Z,3.85
2019-03-06T04:04:09.196Z,3.89
2019-03-06T04:06:36.002Z,4.09
2019-03-06T04:09:04.205Z,4.23
2019-03-06T04:11:30.797Z,4.26
2019-03-06T04:13:57.596Z,4.19
2019-03-06T04:16:24.344Z,4.27
2019-03-06T04:18:51.066Z,4.43
2019-03-06T04:21:37.382Z,4.31
2019-03-06T04:24:04.194Z,4.43
2019-03-06T04:26:31.007Z,4.34
2019-03-06T04:28:58.096Z,4.40
2019-03-06T04:31:24.888Z,4.30
2019-03-06T04:33:51.491Z,4.26
2019-03-06T04:36:18.191Z,4.35
2019-03-06T04:38:44.897Z,4.40
2019-03-06T04:41:11.474Z,4.36
2019-03-06T04:44:05.374Z,4.40
2019-03-06T04:46:32.263Z,4.39
2019-03-06T04:48:59.063Z,4.43
2019-03-06T04:51:25.653Z,4.57
2019-03-06T04:53:52.677Z,4.54
2019-03-06T04:56:19.369Z,4.71
2019-03-06T04:58:46.075Z,4.63
2019-03-06T05:01:12.666Z,4.70
2019-03-06T05:03:39.353Z,4.76
2019-03-06T05:06:06.141Z,4.62
2019-03-06T05:08:32.855Z,4.63
2019-03-06T05:10:59.534Z,4.66
2019-03-06T05:13:26.123Z,4.69
2019-03-06T05:15:52.939Z,4.70
2019-03-06T05:18:33.253Z,4.63
2019-03-06T05:20:59.999Z,4.62
2019-03-06T05:23:26.691Z,4.71
2019-03-06T05:25:53.287Z,4.67
2019-03-06T05:28:20.083Z,4.54
2019-03-06T05:30:46.908Z,4.59
2019-03-06T05:33:13.727Z,4.56
2019-03-06T05:36:11.646Z,4.51
2019-03-06T05:39:00.796Z,4.42
2019-03-06T05:41:27.606Z,4.48
2019-03-06T05:43:54.191Z,4.55
2019-03-06T05:46:20.887Z,4.51
2019-03-06T05:48:47.594Z,4.64
2019-03-06T05:51:14.172Z,4.71
2019-03-06T05:53:40.775Z,4.74
2019-03-06T05:56:07.471Z,4.83
2019-03-06T05:58:34.433Z,4.94
2019-03-06T06:01:01.241Z,4.90
2019-03-06T06:03:27.919Z,5.00
2019-03-06T06:05:54.617Z,5.10
2019-03-06T06:08:21.220Z,5.01
2019-03-06T06:10:47.907Z,5.13
2019-03-06T06:13:14.602Z,5.13
2019-03-06T06:15:41.373Z,5.21
2019-03-06T06:18:08.052Z,5.22
2019-03-06T06:20:34.852Z,5.24
2019-03-06T06:23:09.382Z,5.31
2019-03-06T06:25:36.279Z,5.30
2019-03-06T06:28:03.158Z,5.41
2019-03-06T06:30:30.063Z,5.41
2019-03-06T06:32:56.757Z,5.52
2019-03-06T06:35:23.862Z,5.51
2019-03-06T06:37:50.588Z,5.58
2019-03-06T06:40:17.467Z,5.62
2019-03-06T06:42:44.253Z,5.66
2019-03-06T06:45:11.069Z,5.66
2019-03-06T06:48:05.929Z,5.63
2019-03-06T06:50:32.675Z,5.70
2019-03-06T06:53:37.334Z,5.76
2019-03-06T06:56:29.861Z,5.76
2019-03-06T06:59:12.794Z,5.81
2019-03-06T07:02:29.188Z,5.86
2019-03-06T07:05:18.803Z,6.03
2019-03-06T07:08:01.397Z,5.95
2019-03-06T07:10:56.949Z,6.00
2019-03-06T07:13:52.297Z,6.12
2019-03-06T07:16:47.381Z,6.17
2019-03-06T07:19:36.695Z,6.21
2019-03-06T07:22:10.241Z,6.31
2019-03-06T07:24:57.643Z,6.49
2019-03-06T07:27:59.135Z,6.41
2019-03-06T07:30:34.249Z,6.58
2019-03-06T07:33:10.600Z,6.70
2019-03-06T07:36:04.140Z,6.86
2019-03-06T07:38:30.845Z,6.63
2019-03-06T07:41:14.672Z,6.90
2019-03-06T07:43:50.186Z,7.05
2019-03-06T07:46:29.448Z,7.10
2019-03-06T07:49:12.865Z,7.26
2019-03-06T07:52:17.353Z,7.42
2019-03-06T07:54:53.568Z,7.51
2019-03-06T07:57:28.721Z,7.69
2019-03-06T07:59:55.608Z,7.76
2019-03-06T08:02:27.688Z,8.21
2019-03-06T08:04:54.452Z,8.07
2019-03-06T08:07:21.487Z,8.29
2019-03-06T08:09:48.687Z,8.22
2019-03-06T08:12:47.201Z,8.26
2019-03-06T08:15:31.965Z,8.48
2019-03-06T08:18:17.092Z,8.54
2019-03-06T08:21:00.432Z,8.80
2019-03-06T08:24:04.804Z,8.77
2019-03-06T08:26:31.594Z,8.55
2019-03-06T08:28:58.257Z,8.68
2019-03-06T08:31:42.791Z,8.77
2019-03-06T08:34:09.564Z,9.08
2019-03-06T08:36:36.416Z,9.34
2019-03-06T08:39:11.943Z,9.04
2019-03-06T08:41:38.634Z,9.40
2019-03-06T08:44:05.331Z,9.72
2019-03-06T08:46:50.327Z,9.83
2019-03-06T08:49:42.497Z,10.31
2019-03-06T08:52:23.103Z,9.77
2019-03-06T08:55:12.078Z,9.70
2019-03-06T08:57:47.487Z,9.46
2019-03-06T09:00:46.457Z,9.40
2019-03-06T09:03:22.036Z,9.27
2019-03-06T09:06:17.324Z,9.78
2019-03-06T09:09:02.356Z,10.48
2019-03-06T09:11:36.637Z,10.35
2019-03-06T09:14:23.179Z,10.78
2019-03-06T09:17:15.636Z,10.83
2019-03-06T09:20:02.073Z,11.06
2019-03-06T09:22:42.179Z,11.67
2019-03-06T09:25:47.175Z,11.31
2019-03-06T09:28:33.614Z,11.94
2019-03-06T09:31:07.170Z,12.33
2019-03-06T09:34:00.141Z,12.74
2019-03-06T09:36:38.557Z,12.96
2019-03-06T09:39:20.739Z,12.99
2019-03-06T09:42:16.215Z,12.95
2019-03-06T09:44:51.199Z,13.01
2019-03-06T09:47:42.746Z,12.13
2019-03-06T09:50:24.927Z,12.25
2019-03-06T09:53:08.477Z,12.05
2019-03-06T09:55:52.298Z,12.09
2019-03-06T09:58:34.106Z,11.78
2019-03-06T10:01:23.088Z,11.48
2019-03-06T10:04:03.656Z,11.02
2019-03-06T10:07:05.135Z,10.65
2019-03-06T10:09:59.127Z,10.68
2019-03-06T10:12:33.907Z,11.02
2019-03-06T10:15:32.097Z,11.42
2019-03-06T10:18:02.400Z,11.71
2019-03-06T10:20:29.309Z,11.98
2019-03-06T10:22:59.513Z,12.22
2019-03-06T10:25:30.131Z,12.32
2019-03-06T10:27:53.792Z,12.46
2019-03-06T10:30:20.874Z,12.76
2019-03-06T10:32:47.753Z,12.29
2019-03-06T10:35:14.908Z,11.94
2019-03-06T10:37:41.708Z,12.01
2019-03-06T10:40:11.451Z,12.37
2019-03-06T10:42:38.102Z,12.62
2019-03-06T10:45:05.097Z,12.25
2019-03-06T10:47:31.680Z,12.79
2019-03-06T10:49:58.481Z,13.35
2019-03-06T10:52:25.347Z,14.59
2019-03-06T10:54:52.153Z,14.36
2019-03-06T10:57:18.913Z,14.28
2019-03-06T10:59:45.708Z,13.83
2019-03-06T11:02:12.786Z,12.90
2019-03-06T11:04:53.340Z,12.79
2019-03-06T11:07:20.523Z,12.66
2019-03-06T11:09:48.684Z,13.08
2019-03-06T11:12:15.467Z,13.38
2019-03-06T11:14:44.463Z,13.80
2019-03-06T11:17:11.212Z,13.97
2019-03-06T11:19:38.204Z,14.38
2019-03-06T11:22:05.830Z,14.77
2019-03-06T11:24:32.637Z,14.44
2019-03-06T11:26:59.471Z,14.95
2019-03-06T11:29:26.564Z,15.94
2019-03-06T11:31:53.433Z,16.19
2019-03-06T11:34:20.422Z,15.76
2019-03-06T11:36:47.215Z,15.30
2019-03-06T11:39:14.005Z,16.41
2019-03-06T11:41:40.776Z,16.39
2019-03-06T11:44:07.837Z,16.25
2019-03-06T11:46:34.607Z,17.62
2019-03-06T11:49:01.286Z,18.54
2019-03-06T11:51:28.066Z,16.81
2019-03-06T11:53:54.826Z,16.94
2019-03-06T11:56:21.625Z,15.91
2019-03-06T11:58:48.726Z,16.51
2019-03-06T12:01:17.161Z,17.33
2019-03-06T12:03:44.002Z,17.85
2019-03-06T12:06:10.796Z,17.17
2019-03-06T12:08:45.667Z,16.74
2019-03-06T12:11:06.981Z,16.77
2019-03-06T12:13:33.745Z,16.54
2019-03-06T12:16:00.532Z,15.84
2019-03-06T12:18:27.325Z,15.70
2019-03-06T12:20:54.241Z,15.17
2019-03-06T12:23:21.030Z,15.12
2019-03-06T12:25:47.920Z,14.51
2019-03-06T12:28:15.369Z,14.30
2019-03-06T12:30:42.256Z,14.13
2019-03-06T12:33:12.434Z,14.08
2019-03-06T12:35:39.151Z,14.05
2019-03-06T12:38:05.944Z,14.21
2019-03-06T12:40:33.331Z,14.35
2019-03-06T12:42:59.993Z,14.74
2019-03-06T12:45:27.389Z,15.05
2019-03-06T12:47:55.694Z,15.62
2019-03-06T12:50:23.740Z,15.38
2019-03-06T12:52:50.511Z,14.96
2019-03-06T12:55:17.516Z,14.48
2019-03-06T12:57:44.291Z,14.20
2019-03-06T13:00:19.262Z,14.57
2019-03-06T13:02:46.068Z,14.97
2019-03-06T13:05:12.845Z,14.54
2019-03-06T13:07:39.639Z,14.51
2019-03-06T13:10:08.051Z,14.29
2019-03-06T13:12:34.855Z,13.99
2019-03-06T13:15:01.536Z,13.86
2019-03-06T13:17:28.229Z,14.11
2019-03-06T13:19:55.003Z,13.99
2019-03-06T13:22:22.134Z,13.98
2019-03-06T13:24:48.908Z,14.19
2019-03-06T13:27:15.710Z,14.58
2019-03-06T13:29:45.574Z,14.60
2019-03-06T13:32:13.523Z,14.52
2019-03-06T13:34:50.732Z,14.49
2019-03-06T13:37:18.430Z,14.48
2019-03-06T13:39:44.995Z,14.46
2019-03-06T13:42:11.807Z,14.26
2019-03-06T13:44:38.599Z,14.30
2019-03-06T13:47:05.499Z,14.48
2019-03-06T13:49:32.179Z,14.28
2019-03-06T13:51:58.972Z,14.48
2019-03-06T13:54:26.151Z,14.69
2019-03-06T13:56:52.840Z,15.13
2019-03-06T13:59:19.617Z,15.70
2019-03-06T14:01:47.004Z,15.72
2019-03-06T14:04:13.767Z,16.50
2019-03-06T14:06:40.562Z,16.21
2019-03-06T14:09:08.029Z,15.72
2019-03-06T14:11:34.843Z,15.24
2019-03-06T14:14:01.736Z,15.31
2019-03-06T14:16:28.822Z,14.87
2019-03-06T14:18:55.671Z,14.44
2019-03-06T14:21:22.532Z,14.35
2019-03-06T14:23:49.231Z,14.48
2019-03-06T14:26:16.273Z,14.90
2019-03-06T14:28:43.113Z,14.52
2019-03-06T14:31:11.464Z,14.36
2019-03-06T14:33:38.462Z,14.53
2019-03-06T14:36:08.148Z,14.48
2019-03-06T14:38:35.163Z,14.35
2019-03-06T14:41:01.940Z,14.42
2019-03-06T14:43:28.743Z,14.30
2019-03-06T14:45:55.629Z,14.27
2019-03-06T14:48:22.728Z,13.83
2019-03-06T14:50:49.416Z,13.91
2019-03-06T14:53:16.210Z,13.83
2019-03-06T14:55:42.843Z,13.90
2019-03-06T14:58:09.653Z,13.90
2019-03-06T15:00:36.434Z,13.90
2019-03-06T15:03:03.242Z,13.86
2019-03-06T15:05:30.018Z,13.70
2019-03-06T15:07:56.816Z,13.63
2019-03-06T15:10:23.985Z,13.57
2019-03-06T15:12:50.784Z,13.54
2019-03-06T15:15:17.560Z,13.40
2019-03-06T15:17:44.356Z,13.30
2019-03-06T15:20:13.857Z,13.33
2019-03-06T15:22:40.934Z,13.19
2019-03-06T15:25:10.690Z,13.23
2019-03-06T15:27:37.350Z,13.23
2019-03-06T15:30:05.444Z,13.23
2019-03-06T15:32:32.141Z,13.29
2019-03-06T15:34:58.832Z,13.23
2019-03-06T15:37:25.744Z,13.22
2019-03-06T15:39:53.642Z,13.21
2019-03-06T15:42:20.478Z,13.18
2019-03-06T15:44:47.822Z,12.97
2019-03-06T15:47:14.651Z,13.00
2019-03-06T15:49:41.481Z,12.96
2019-03-06T15:52:09.389Z,12.96
2019-03-06T15:54:36.513Z,12.94
2019-03-06T15:57:03.641Z,12.94
2019-03-06T15:59:30.451Z,13.00
2019-03-06T16:01:57.440Z,13.07
2019-03-06T16:04:24.243Z,13.09
2019-03-06T16:07:10.560Z,13.15
2019-03-06T16:09:37.663Z,13.22
2019-03-06T16:12:04.441Z,13.26
2019-03-06T16:14:31.404Z,13.17
2019-03-06T16:16:58.183Z,13.03
2019-03-06T16:19:25.036Z,12.99
2019-03-06T16:21:51.603Z,13.04
2019-03-06T16:24:18.709Z,12.94
2019-03-06T16:26:45.802Z,12.95
2019-03-06T16:29:12.505Z,12.94
2019-03-06T16:31:39.286Z,12.89
2019-03-06T16:34:06.192Z,12.80
2019-03-06T16:36:32.991Z,12.70
2019-03-06T16:38:59.707Z,12.70
2019-03-06T16:41:26.472Z,12.72
2019-03-06T16:43:53.555Z,12.65
2019-03-06T16:46:20.421Z,12.65
2019-03-06T16:48:47.120Z,12.65
2019-03-06T16:51:13.901Z,12.72
2019-03-06T16:53:40.604Z,12.70
2019-03-06T16:56:07.430Z,12.62
2019-03-06T16:58:34.208Z,12.54
2019-03-06T17:01:01.412Z,12.28
2019-03-06T17:03:28.296Z,11.99
2019-03-06T17:05:55.091Z,11.76
2019-03-06T17:08:22.070Z,11.50
2019-03-06T17:10:48.962Z,11.18
2019-03-06T17:13:15.755Z,10.84
2019-03-06T17:15:42.566Z,10.68
2019-03-06T17:18:10.637Z,10.59
2019-03-06T17:20:37.539Z,10.40
2019-03-06T17:23:04.617Z,10.49
2019-03-06T17:25:31.912Z,10.57
2019-03-06T17:27:58.893Z,10.43
2019-03-06T17:30:25.926Z,10.33
2019-03-06T17:33:02.172Z,10.18
2019-03-06T17:35:29.666Z,10.22
2019-03-06T17:37:56.603Z,10.31
2019-03-06T17:40:23.597Z,10.32
2019-03-06T17:42:50.582Z,10.33
2019-03-06T17:45:17.772Z,10.25
2019-03-06T17:47:44.834Z,10.25
2019-03-06T17:50:12.002Z,10.28
2019-03-06T17:52:38.827Z,10.36
2019-03-06T17:55:05.643Z,10.63
2019-03-06T17:57:32.314Z,10.61
2019-03-06T17:59:59.430Z,10.62
2019-03-06T18:02:26.583Z,10.47
2019-03-06T18:04:53.395Z,10.49
2019-03-06T18:07:20.187Z,10.50
2019-03-06T18:09:47.059Z,10.48
2019-03-06T18:12:13.855Z,10.51
2019-03-06T18:14:40.548Z,10.53
2019-03-06T18:17:07.348Z,10.41
2019-03-06T18:19:33.926Z,10.44
2019-03-06T18:22:00.737Z,10.39
2019-03-06T18:24:27.510Z,10.36
2019-03-06T18:26:54.709Z,10.55
2019-03-06T18:29:21.376Z,10.76
2019-03-06T18:31:48.170Z,10.70
2019-03-06T18:34:14.742Z,10.70
2019-03-06T18:36:41.539Z,10.90
2019-03-06T18:39:18.621Z,11.10
2019-03-06T18:41:46.144Z,11.08
2019-03-06T18:44:12.806Z,10.93
2019-03-06T18:46:39.592Z,10.87
2019-03-06T18:49:06.270Z,10.97
2019-03-06T18:51:33.044Z,10.85
2019-03-06T18:53:59.740Z,10.83
2019-03-06T18:56:26.464Z,11.00
2019-03-06T19:01:45.198Z,10.65
2019-03-06T19:04:11.970Z,10.59
2019-03-06T19:06:39.060Z,10.80
2019-03-06T19:09:06.852Z,10.83
2019-03-06T19:11:33.651Z,10.69
2019-03-06T19:14:00.607Z,10.82
2019-03-06T19:16:27.378Z,10.62
2019-03-06T19:18:54.032Z,10.52
2019-03-06T19:21:22.725Z,10.73
2019-03-06T19:23:49.412Z,10.73
2019-03-06T19:26:16.187Z,10.59
2019-03-06T19:28:42.960Z,10.44
2019-03-06T19:31:09.953Z,10.48
2019-03-06T19:33:36.613Z,10.37
2019-03-06T19:36:03.401Z,10.39
2019-03-06T19:38:30.086Z,10.32
2019-03-06T19:40:56.873Z,10.28
2019-03-06T19:43:23.678Z,10.26
2019-03-06T19:45:50.474Z,10.49
2019-03-06T19:48:17.273Z,10.47
2019-03-06T19:50:44.630Z,10.38
2019-03-06T19:53:11.317Z,10.27
2019-03-06T19:55:38.087Z,10.58
2019-03-06T19:58:05.630Z,10.67
2019-03-06T20:00:32.952Z,10.51
2019-03-06T20:03:00.367Z,10.58
2019-03-06T20:05:30.282Z,10.62
2019-03-06T20:07:57.194Z,10.56
2019-03-06T20:10:23.964Z,10.67
2019-03-06T20:12:50.748Z,10.54
2019-03-06T20:15:17.745Z,10.51
2019-03-06T20:17:44.663Z,10.66
2019-03-06T20:20:11.844Z,10.61
2019-03-06T20:22:38.571Z,10.88
2019-03-06T20:25:05.699Z,10.87
2019-03-06T20:27:32.688Z,10.75
2019-03-06T20:29:59.452Z,10.71
2019-03-06T20:32:26.147Z,10.80
2019-03-06T20:34:52.904Z,10.73
2019-03-06T20:37:19.627Z,10.78
2019-03-06T20:39:46.412Z,10.75
2019-03-06T20:42:13.208Z,10.97
2019-03-06T20:44:40.009Z,11.01
2019-03-06T20:47:07.082Z,11.00
2019-03-06T20:49:33.675Z,10.95
2019-03-06T20:52:00.473Z,10.78
2019-03-06T20:54:27.527Z,10.81
2019-03-06T20:56:54.344Z,10.83
2019-03-06T20:59:21.022Z,10.70
2019-03-06T21:01:47.620Z,10.77
2019-03-06T21:04:15.048Z,10.66
2019-03-06T21:06:42.079Z,10.61
2019-03-06T21:09:08.773Z,10.55
2019-03-06T21:11:36.342Z,10.63
2019-03-06T21:14:03.675Z,10.53
2019-03-06T21:16:31.998Z,10.47
2019-03-06T21:18:58.996Z,10.44
2019-03-06T21:21:25.689Z,10.43
2019-03-06T21:23:52.678Z,10.48
2019-03-06T21:26:19.356Z,10.50
2019-03-06T21:28:46.031Z,10.50
2019-03-06T21:31:12.811Z,10.43
2019-03-06T21:33:39.608Z,10.38
2019-03-06T21:36:06.294Z,10.36
2019-03-06T21:38:32.927Z,10.29
2019-03-06T21:40:59.603Z,10.24
2019-03-06T21:43:26.278Z,10.14
2019-03-06T21:45:53.015Z,10.08
2019-03-06T21:48:19.806Z,10.10
2019-03-06T21:50:46.609Z,10.02
2019-03-06T21:53:13.291Z,10.10
2019-03-06T21:55:40.115Z,9.96
2019-03-06T21:58:06.865Z,9.99
2019-03-06T22:00:33.721Z,10.04
2019-03-06T22:03:00.553Z,9.97
2019-03-06T22:05:27.319Z,9.87
2019-03-06T22:07:54.027Z,9.81
2019-03-06T22:10:21.188Z,9.88
2019-03-06T22:12:47.969Z,9.78
2019-03-06T22:15:34.292Z,9.76
2019-03-06T22:18:01.121Z,9.72
2019-03-06T22:20:27.904Z,9.77
2019-03-06T22:22:54.792Z,9.77
2019-03-06T22:25:21.600Z,9.70
2019-03-06T22:27:48.364Z,9.73
2019-03-06T22:30:16.309Z,9.74
2019-03-06T22:32:43.079Z,9.94
2019-03-06T22:35:09.967Z,9.85
2019-03-06T22:37:36.658Z,9.80
2019-03-06T22:40:04.411Z,9.84
2019-03-06T22:42:31.376Z,9.87
2019-03-06T22:44:58.058Z,9.89
2019-03-06T22:47:25.235Z,9.83
2019-03-06T22:49:51.928Z,9.95
2019-03-06T22:52:18.595Z,9.98
2019-03-06T22:54:45.387Z,10.12
2019-03-06T22:57:12.160Z,10.08
2019-03-06T22:59:39.143Z,10.04
2019-03-06T23:02:06.011Z,10.04
2019-03-06T23:04:32.707Z,10.08
2019-03-06T23:06:59.471Z,10.03
2019-03-06T23:09:26.258Z,10.06
2019-03-06T23:11:53.026Z,10.06
2019-03-06T23:14:19.835Z,10.12
2019-03-06T23:16:47.044Z,10.17
2019-03-06T23:19:13.844Z,10.14
2019-03-06T23:21:40.527Z,10.09
2019-03-06T23:24:26.949Z,10.09
2019-03-06T23:26:53.521Z,10.20
2019-03-06T23:29:20.601Z,10.17
2019-03-06T23:31:47.589Z,10.15
2019-03-06T23:34:14.351Z,10.20
2019-03-06T23:36:41.036Z,10.29
2019-03-06T23:39:11.279Z,10.18
2019-03-06T23:41:38.075Z,10.21
2019-03-06T23:44:04.654Z,10.32
2019-03-06T23:46:31.538Z,10.25
2019-03-06T23:48:58.201Z,10.30
2019-03-06T23:51:44.539Z,10.38
2019-03-06T23:54:11.240Z,10.34
2019-03-06T23:56:37.903Z,10.43
2019-03-06T23:59:04.897Z,10.35
